Keezletown, Virginia
Current Conditions -  °F | °C
As of 1:55 AM on Saturday 01 Nov 2014 (Local Time) from KVBW Reporting Station
Overcast Overcast  
Wind Chill: 39°   Ceiling: 3200
Heat Index: 42°   Visibility: 7mi
Dew Point: 40°   Wind: 5mph
Humidity: 93%   Direction: 10°N
Pressure: 29.81"   Gusts: NA
Location:  38.41°N, 78.8°W
Report Text: KVBW 010555Z AUTO 01004KT 7SM SCT007 OVC032 06/05 A2981 RMK AO2 60005 T00570047 10080 20057 401051010
Loading
Personal Weather Stations






























Interactive Weather Map
Tropical Storm Tracking
New forecast layout! Learn more

10-Day Weather Forecast

Advertisements
Track Severe Weather on mobile